Sagar Sampada — VWXS — position and weather

sailwx.info

Track history (hours):
 
Tides and Currents Weather Stations Pressure Air Temp Water Temp Dewpoint Dewpoint Depression Visibility Wind Speed Wind Dir Waves Ship Positions

Oceanographic research ship Sagar Sampada (India)

Detailed information on ship capabilities available from University of Delaware's Ocean Information Center.

Last reported at 2018-Jul-11 18:08 UTC. Time now 2018-Sep-21 02:17 UTC.
Position N 21°42' E 069°00'.
Warning: this ship's position is months out of date.

Type: Other ship. MMSI: 419323000.

Wind from 050 at 27 knots

Barometer 998.4 mb
Air temperature 29.8 ° C

Date/timePositionNaut miles runAvg speedWind from/ knotsBaromVisibWave heightAir tempDewpointWater temp
2018-Jul-11 18:08N 21°42' E 069°00'19 6.3 050 / 27998.4 29.8
2018-Jul-11 15:08N 22°00' E 068°54'13 4.4 050 / 25997.4 29.8
2018-Jul-11 12:08N 22°12' E 068°48'19 6.3 060 / 23996.4 29.7
2018-Jul-11 09:08N 22°30' E 068°54'11 1.8
2018-Jul-11 03:08N 22°30' E 069°06'0 0.0 060 / 10999.2 30.6
2018-Jul-11 00:08N 22°30' E 069°06'0 0.0 050 / 8998.2 42.4
2018-Jul-10 18:08N 22°30' E 069°06'0 0.0 020 / 10
2018-Jul-10 15:08N 22°30' E 069°06'0 0.0 080 / 54 37.2
2018-Jul-10 12:08N 22°30' E 069°06'0 0.0 060 / 8997.2 30.3
2018-Jul-10 08:38N 22°30' E 069°06'0 0.0 060 / 10998.1 31.2
2018-Jul-09 03:08N 22°30' E 069°06'37 2.5 250 / 62
2018-Jul-08 12:08N 22°00' E 068°42'6 1.7 010 / 62
2018-Jul-08 08:38N 22°06' E 068°42'6 2.2 240 / 60
2018-Jul-08 06:08N 22°06' E 068°48'0 0.0 220 / 51 31.3
2018-Jul-07 21:08N 22°06' E 068°48'6 2.0 230 / 60
2018-Jul-07 18:08N 22°00' E 068°48'8 2.7 200 / 60
2018-Jul-07 15:08N 22°06' E 068°42'13 4.2 260 / 58
2018-Jul-07 12:08N 22°12' E 068°54'0 0.0 230 / 60999.9 30.3
2018-Jul-07 09:08N 22°12' E 068°54'0 0.0 240 / 62 30.2
2018-Jul-07 06:08N 22°12' E 068°54'0 0.0 300 / 62 30.2
2018-Jul-07 03:08N 22°12' E 068°54'8 2.7 340 / 60
2018-Jul-07 00:08N 22°06' E 068°48'29 4.8 290 / 62
2018-Jul-06 18:08N 21°48' E 068°24'8 2.7 350 / 58
2018-Jul-06 15:08N 21°42' E 068°18'21 6.9
2018-Jul-06 12:08N 21°30' E 068°00'8 2.7 340 / 60
2018-Jul-06 09:08N 21°24' E 067°54'16 5.5 350 / 58
2018-Jul-06 06:08N 21°12' E 067°42'11 3.7 220 / 60
2018-Jul-06 03:08N 21°12' E 067°54'17 5.6 240 / 58
2018-Jul-06 00:08N 21°12' E 068°12'36 4.0 290 / 58
2018-Jul-05 15:08N 21°00' E 068°48'11 3.7 270 / 58
2018-Jul-05 12:08N 21°00' E 069°00'29 4.8 250 / 58
2018-Jul-05 06:08N 20°54' E 069°30'11 3.7 220 / 60
2018-Jul-05 03:08N 20°54' E 069°42'13 4.2 220 / 58
2018-Jul-05 00:08N 20°48' E 069°54'11 3.7 290 / 60
2018-Jul-04 21:08N 20°48' E 070°06'108 2.3 210 / 62
2018-Jul-02 21:08N 19°00' E 070°00'11 3.2 240 / 60
2018-Jul-02 17:38N 19°00' E 070°12'6 2.3 230 / 60
2018-Jul-02 15:08N 19°00' E 070°18'11 3.8 230 / 60
2018-Jul-02 12:08N 19°00' E 070°30'13 4.3 250 / 60 29.3
2018-Jul-02 09:08N 18°54' E 070°42'11 3.8 230 / 60 30.0
2018-Jul-02 06:08N 18°54' E 070°54'13 4.3 210 / 60
2018-Jul-02 03:08N 19°00' E 071°06'6 2.0 200 / 58 30.1
2018-Jul-02 00:08N 18°54' E 071°06'   260 / 58
Track history (hours):
 
Tides and Currents Weather Stations Pressure Air Temp Water Temp Dewpoint Dewpoint Depression Visibility Wind Speed Wind Dir Waves Ship Positions

Oceanographic research ship Sagar Sampada (India)

Detailed information on ship capabilities available from University of Delaware's Ocean Information Center.

Last reported at 2018-Jul-11 18:08 UTC. Time now 2018-Sep-21 02:17 UTC.
Position N 21°42' E 069°00'.
Warning: this ship's position is months out of date.

Type: Other ship. MMSI: 419323000.

Wind from 050 at 27 knots

Barometer 998.4 mb
Air temperature 29.8 ° C

Date/timePositionNaut miles runAvg speedWind from/ knotsBaromVisibWave heightAir tempDewpointWater temp
2018-Jul-11 18:08N 21°42' E 069°00'19 6.3 050 / 27998.4 29.8
2018-Jul-11 15:08N 22°00' E 068°54'13 4.4 050 / 25997.4 29.8
2018-Jul-11 12:08N 22°12' E 068°48'19 6.3 060 / 23996.4 29.7
2018-Jul-11 09:08N 22°30' E 068°54'11 1.8
2018-Jul-11 03:08N 22°30' E 069°06'0 0.0 060 / 10999.2 30.6
2018-Jul-11 00:08N 22°30' E 069°06'0 0.0 050 / 8998.2 42.4
2018-Jul-10 18:08N 22°30' E 069°06'0 0.0 020 / 10
2018-Jul-10 15:08N 22°30' E 069°06'0 0.0 080 / 54 37.2
2018-Jul-10 12:08N 22°30' E 069°06'0 0.0 060 / 8997.2 30.3
2018-Jul-10 08:38N 22°30' E 069°06'0 0.0 060 / 10998.1 31.2
2018-Jul-09 03:08N 22°30' E 069°06'37 2.5 250 / 62
2018-Jul-08 12:08N 22°00' E 068°42'6 1.7 010 / 62
2018-Jul-08 08:38N 22°06' E 068°42'6 2.2 240 / 60
2018-Jul-08 06:08N 22°06' E 068°48'0 0.0 220 / 51 31.3
2018-Jul-07 21:08N 22°06' E 068°48'6 2.0 230 / 60
2018-Jul-07 18:08N 22°00' E 068°48'8 2.7 200 / 60
2018-Jul-07 15:08N 22°06' E 068°42'13 4.2 260 / 58
2018-Jul-07 12:08N 22°12' E 068°54'0 0.0 230 / 60999.9 30.3
2018-Jul-07 09:08N 22°12' E 068°54'0 0.0 240 / 62 30.2
2018-Jul-07 06:08N 22°12' E 068°54'0 0.0 300 / 62 30.2
2018-Jul-07 03:08N 22°12' E 068°54'8 2.7 340 / 60
2018-Jul-07 00:08N 22°06' E 068°48'29 4.8 290 / 62
2018-Jul-06 18:08N 21°48' E 068°24'8 2.7 350 / 58
2018-Jul-06 15:08N 21°42' E 068°18'21 6.9
2018-Jul-06 12:08N 21°30' E 068°00'8 2.7 340 / 60
2018-Jul-06 09:08N 21°24' E 067°54'16 5.5 350 / 58
2018-Jul-06 06:08N 21°12' E 067°42'11 3.7 220 / 60
2018-Jul-06 03:08N 21°12' E 067°54'17 5.6 240 / 58
2018-Jul-06 00:08N 21°12' E 068°12'36 4.0 290 / 58
2018-Jul-05 15:08N 21°00' E 068°48'11 3.7 270 / 58
2018-Jul-05 12:08N 21°00' E 069°00'29 4.8 250 / 58
2018-Jul-05 06:08N 20°54' E 069°30'11 3.7 220 / 60
2018-Jul-05 03:08N 20°54' E 069°42'13 4.2 220 / 58
2018-Jul-05 00:08N 20°48' E 069°54'11 3.7 290 / 60
2018-Jul-04 21:08N 20°48' E 070°06'108 2.3 210 / 62
2018-Jul-02 21:08N 19°00' E 070°00'11 3.2 240 / 60
2018-Jul-02 17:38N 19°00' E 070°12'6 2.3 230 / 60
2018-Jul-02 15:08N 19°00' E 070°18'11 3.8 230 / 60
2018-Jul-02 12:08N 19°00' E 070°30'13 4.3 250 / 60 29.3
2018-Jul-02 09:08N 18°54' E 070°42'11 3.8 230 / 60 30.0
2018-Jul-02 06:08N 18°54' E 070°54'13 4.3 210 / 60
2018-Jul-02 03:08N 19°00' E 071°06'6 2.0 200 / 58 30.1
2018-Jul-02 00:08N 18°54' E 071°06'   260 / 58

Dump ship's entire track history